createdAt,value
2022-09-21T00:01:10.595Z,98372.44
2022-09-21T00:04:19.008Z,98375.25
2022-09-21T00:07:24.465Z,98372.09
2022-09-21T00:10:31.080Z,98380.41
2022-09-21T00:13:38.129Z,98374.56
2022-09-21T00:16:46.043Z,98371.28
2022-09-21T00:19:54.280Z,98375.72
2022-09-21T00:22:59.867Z,98381.22
2022-09-21T00:26:12.347Z,98381.56
2022-09-21T00:29:18.111Z,98381.72
2022-09-21T00:32:25.344Z,98380.41
2022-09-21T00:35:33.756Z,98376.25
2022-09-21T00:38:40.747Z,98384.03
2022-09-21T00:41:46.381Z,98380.06
2022-09-21T00:44:52.984Z,98377.53
2022-09-21T00:48:06.619Z,98380.00
2022-09-21T00:51:15.986Z,98384.50
2022-09-21T00:54:30.139Z,98384.00
2022-09-21T00:57:38.821Z,98383.50
2022-09-21T01:00:47.544Z,98382.16
2022-09-21T01:03:57.486Z,98381.00
2022-09-21T01:07:15.972Z,98385.97
2022-09-21T01:10:23.974Z,98394.97
2022-09-21T01:13:50.507Z,98390.81
2022-09-21T01:17:09.905Z,98391.47
2022-09-21T01:21:16.153Z,98389.47
2022-09-21T01:25:11.033Z,98392.66
2022-09-21T01:28:39.493Z,98394.44
2022-09-21T01:31:59.098Z,98394.97
2022-09-21T01:35:13.764Z,98394.50
2022-09-21T01:38:28.063Z,98400.09
2022-09-21T01:41:38.329Z,98393.59
2022-09-21T01:44:48.963Z,98398.94
2022-09-21T01:48:03.573Z,98394.78
2022-09-21T01:51:17.911Z,98395.31
2022-09-21T01:54:34.026Z,98398.31
2022-09-21T01:57:50.310Z,98412.41
2022-09-21T02:01:01.143Z,98403.09
2022-09-21T02:04:15.970Z,98403.97
2022-09-21T02:07:22.792Z,98402.75
2022-09-21T02:10:39.348Z,98412.56
2022-09-21T02:13:54.545Z,98406.75
2022-09-21T02:17:20.836Z,98411.09
2022-09-21T02:20:36.756Z,98412.75
2022-09-21T02:23:52.941Z,98409.78
2022-09-21T02:27:08.932Z,98418.56
2022-09-21T02:30:21.969Z,98408.78
2022-09-21T02:33:37.529Z,98415.09
2022-09-21T02:36:57.132Z,98409.63
2022-09-21T02:40:20.396Z,98413.44
2022-09-21T02:43:37.921Z,98405.78
2022-09-21T02:46:56.409Z,98417.72
2022-09-21T02:50:12.312Z,98415.25
2022-09-21T02:53:29.688Z,98418.75
2022-09-21T02:56:36.138Z,98429.19
2022-09-21T02:59:42.459Z,98423.22
2022-09-21T03:02:49.255Z,98426.06
2022-09-21T03:05:59.090Z,98437.16
2022-09-21T03:09:07.556Z,98431.38
2022-09-21T03:12:14.052Z,98438.00
2022-09-21T03:15:20.154Z,98440.34
2022-09-21T03:18:25.747Z,98443.16
2022-09-21T03:21:31.373Z,98451.97
2022-09-21T03:24:48.706Z,98453.66
2022-09-21T03:27:54.322Z,98451.97
2022-09-21T03:31:01.296Z,98452.28
2022-09-21T03:34:06.748Z,98455.63
2022-09-21T03:37:14.223Z,98465.78
2022-09-21T03:40:26.519Z,98462.59
2022-09-21T03:43:32.152Z,98464.66
2022-09-21T03:46:38.128Z,98459.59
2022-09-21T03:49:43.625Z,98475.84
2022-09-21T03:52:49.541Z,98472.72
2022-09-21T03:55:59.149Z,98472.19
2022-09-21T03:59:11.792Z,98474.16
2022-09-21T04:02:19.982Z,98471.66
2022-09-21T04:05:26.113Z,98486.09
2022-09-21T04:08:33.879Z,98480.63
2022-09-21T04:11:42.167Z,98482.41
2022-09-21T04:14:47.694Z,98480.47
2022-09-21T04:17:55.989Z,98479.47
2022-09-21T04:21:01.767Z,98476.16
2022-09-21T04:24:08.758Z,98476.84
2022-09-21T04:27:17.692Z,98472.84
2022-09-21T04:30:26.317Z,98482.19
2022-09-21T04:33:31.983Z,98483.81
2022-09-21T04:36:37.554Z,98494.63
2022-09-21T04:39:43.507Z,98495.47
2022-09-21T04:43:01.585Z,98486.13
2022-09-21T04:46:12.792Z,98485.94
2022-09-21T04:49:18.291Z,98487.91
2022-09-21T04:52:24.071Z,98491.72
2022-09-21T04:55:29.607Z,98500.03
2022-09-21T04:58:40.037Z,98495.06
2022-09-21T05:01:45.843Z,98494.88
2022-09-21T05:04:51.414Z,98494.75
2022-09-21T05:07:56.921Z,98494.09
2022-09-21T05:10:59.868Z,98502.38
2022-09-21T05:14:12.438Z,98506.03
2022-09-21T05:17:17.945Z,98507.50
2022-09-21T05:20:26.191Z,98513.41
2022-09-21T05:23:34.838Z,98515.56
2022-09-21T05:26:40.733Z,98513.50
2022-09-21T05:29:50.006Z,98517.53
2022-09-21T05:33:06.633Z,98509.59
2022-09-21T05:36:42.419Z,98512.59
2022-09-21T05:39:48.879Z,98518.63
2022-09-21T05:43:18.337Z,98512.81
2022-09-21T05:46:42.371Z,98524.06
2022-09-21T05:50:19.771Z,98520.63
2022-09-21T05:53:52.374Z,98525.97
2022-09-21T05:57:15.233Z,98527.28
2022-09-21T06:00:25.163Z,98528.13
2022-09-21T06:03:42.454Z,98533.47
2022-09-21T06:06:48.097Z,98532.34
2022-09-21T06:09:54.585Z,98537.25
2022-09-21T06:13:00.425Z,98543.97
2022-09-21T06:16:07.701Z,98548.16
2022-09-21T06:19:17.527Z,98544.97
2022-09-21T06:22:23.130Z,98537.28
2022-09-21T06:25:28.636Z,98535.47
2022-09-21T06:28:35.869Z,98532.47
2022-09-21T06:31:41.353Z,98537.81
2022-09-21T06:34:50.103Z,98542.97
2022-09-21T06:37:55.663Z,98542.31
2022-09-21T06:41:06.687Z,98546.63
2022-09-21T06:44:12.152Z,98549.94
2022-09-21T06:47:17.901Z,98565.94
2022-09-21T06:50:26.902Z,98560.16
2022-09-21T06:53:36.213Z,98560.97
2022-09-21T06:56:43.401Z,98567.78
2022-09-21T06:59:49.013Z,98573.78
2022-09-21T07:02:55.816Z,98568.97
2022-09-21T07:06:06.221Z,98571.81
2022-09-21T07:12:37.997Z,98577.81
2022-09-21T07:15:43.525Z,98583.63
2022-09-21T07:18:49.139Z,98584.66
2022-09-21T07:21:59.291Z,98583.47
2022-09-21T07:25:05.713Z,98585.31
2022-09-21T07:28:16.516Z,98575.16
2022-09-21T07:31:22.019Z,98585.84
2022-09-21T07:34:28.655Z,98588.03
2022-09-21T07:37:37.111Z,98580.38
2022-09-21T07:40:43.322Z,98592.66
2022-09-21T07:43:49.203Z,98594.50
2022-09-21T07:46:54.860Z,98597.03
2022-09-21T07:50:08.555Z,98606.31
2022-09-21T07:53:25.388Z,98602.50
2022-09-21T07:56:33.247Z,98605.00
2022-09-21T07:59:36.255Z,98594.16
2022-09-21T08:02:47.444Z,98598.66
2022-09-21T08:05:56.092Z,98608.16
2022-09-21T08:09:06.347Z,98609.31
2022-09-21T08:12:13.691Z,98608.16
2022-09-21T08:15:44.093Z,98615.97
2022-09-21T08:18:46.323Z,98608.47
2022-09-21T08:21:56.912Z,98620.28
2022-09-21T08:25:06.115Z,98617.13
2022-09-21T08:28:11.680Z,98618.97
2022-09-21T08:31:17.256Z,98623.28
2022-09-21T08:34:24.261Z,98627.63
2022-09-21T08:37:29.823Z,98630.78
2022-09-21T08:40:38.774Z,98632.28
2022-09-21T08:43:48.864Z,98625.31
2022-09-21T08:47:07.904Z,98628.78
2022-09-21T08:50:40.351Z,98628.78
2022-09-21T08:53:51.912Z,98625.25
2022-09-21T08:57:06.213Z,98626.25
2022-09-21T09:00:23.257Z,98628.72
2022-09-21T09:03:57.865Z,98629.09
2022-09-21T09:07:44.556Z,98625.75
2022-09-21T09:11:17.177Z,98616.75
2022-09-21T09:15:14.464Z,98625.16
2022-09-21T09:18:40.255Z,98621.06
2022-09-21T09:21:50.576Z,98614.13
2022-09-21T09:25:04.419Z,98621.03
2022-09-21T09:28:29.926Z,98621.22
2022-09-21T09:31:40.799Z,98617.22
2022-09-21T09:34:58.072Z,98623.19
2022-09-21T09:38:16.337Z,98618.44
2022-09-21T09:42:03.817Z,98613.34
2022-09-21T09:45:41.294Z,98623.06
2022-09-21T09:49:20.401Z,98615.91
2022-09-21T09:52:26.122Z,98613.41
2022-09-21T09:55:42.618Z,98624.84
2022-09-21T09:58:56.212Z,98620.63
2022-09-21T10:02:06.029Z,98619.69
2022-09-21T10:05:26.098Z,98620.94
2022-09-21T10:08:47.981Z,98620.72
2022-09-21T10:11:55.884Z,98616.72
2022-09-21T10:15:04.024Z,98621.13
2022-09-21T10:18:23.562Z,98622.94
2022-09-21T10:21:45.132Z,98612.88
2022-09-21T10:24:59.261Z,98608.75
2022-09-21T10:28:07.345Z,98619.28
2022-09-21T10:31:25.237Z,98612.25
2022-09-21T10:34:39.848Z,98609.72
2022-09-21T10:37:54.639Z,98613.34
2022-09-21T10:41:01.145Z,98614.84
2022-09-21T10:44:07.213Z,98606.41
2022-09-21T10:47:26.700Z,98604.34
2022-09-21T10:50:40.144Z,98601.50
2022-09-21T10:54:01.943Z,98599.66
2022-09-21T10:57:17.947Z,98603.78
2022-09-21T11:00:46.378Z,98601.69
2022-09-21T11:04:03.464Z,98594.69
2022-09-21T11:07:31.326Z,98606.25
2022-09-21T11:10:56.208Z,98610.22
2022-09-21T11:14:19.374Z,98609.59
2022-09-21T11:17:42.157Z,98612.00
2022-09-21T11:20:58.340Z,98610.00
2022-09-21T11:24:28.428Z,98603.47
2022-09-21T11:27:44.672Z,98602.31
2022-09-21T11:31:32.894Z,98590.41
2022-09-21T11:35:05.554Z,98595.09
2022-09-21T11:38:21.758Z,98598.41
2022-09-21T11:41:56.460Z,98593.34
2022-09-21T11:45:16.704Z,98592.56
2022-09-21T11:48:40.456Z,98593.03
2022-09-21T11:52:18.912Z,98592.72
2022-09-21T11:56:00.658Z,98587.91
2022-09-21T11:59:55.689Z,98582.50
2022-09-21T12:04:07.638Z,98584.75
2022-09-21T12:08:05.855Z,98577.53
2022-09-21T12:11:33.493Z,98583.72
2022-09-21T12:14:54.644Z,98586.59
2022-09-21T12:18:14.096Z,98583.13
2022-09-21T12:21:30.788Z,98566.53
2022-09-21T12:24:46.296Z,98577.59
2022-09-21T12:28:01.077Z,98572.03
2022-09-21T12:31:15.294Z,98565.91
2022-09-21T12:34:33.869Z,98572.28
2022-09-21T12:37:51.951Z,98567.44
2022-09-21T12:41:19.197Z,98565.13
2022-09-21T12:44:52.236Z,98557.09
2022-09-21T12:48:11.784Z,98549.53
2022-09-21T12:51:26.016Z,98562.59
2022-09-21T12:54:50.259Z,98554.13
2022-09-21T12:58:15.528Z,98563.06
2022-09-21T13:01:36.608Z,98550.00
2022-09-21T13:05:07.948Z,98537.19
2022-09-21T13:08:36.899Z,98544.00
2022-09-21T13:12:00.538Z,98550.13
2022-09-21T13:15:26.396Z,98537.91
2022-09-21T13:18:36.890Z,98535.63
2022-09-21T13:21:50.918Z,98542.44
2022-09-21T13:25:09.672Z,98534.56
2022-09-21T13:28:25.002Z,98526.31
2022-09-21T13:32:08.951Z,98523.63
2022-09-21T13:36:17.041Z,98525.53
2022-09-21T13:39:22.950Z,98528.44
2022-09-21T13:42:50.267Z,98519.28
2022-09-21T13:46:01.749Z,98518.72
2022-09-21T13:49:23.857Z,98511.91
2022-09-21T13:52:43.200Z,98509.00
2022-09-21T13:55:56.759Z,98508.81
2022-09-21T13:59:09.947Z,98509.47
2022-09-21T14:02:36.508Z,98510.25
2022-09-21T14:05:48.226Z,98506.31
2022-09-21T14:09:06.035Z,98509.44
2022-09-21T14:12:28.114Z,98517.66
2022-09-21T14:15:43.606Z,98521.19
2022-09-21T14:18:51.882Z,98531.03
2022-09-21T14:22:53.825Z,98526.19
2022-09-21T14:26:14.940Z,98528.53
2022-09-21T14:29:49.095Z,98518.72
2022-09-21T14:33:11.358Z,98525.50
2022-09-21T14:36:31.207Z,98525.69
2022-09-21T14:39:44.612Z,98513.13
2022-09-21T14:42:51.620Z,98514.88
2022-09-21T14:46:27.775Z,98515.69
2022-09-21T14:50:07.452Z,98520.63
2022-09-21T14:53:56.401Z,98521.88
2022-09-21T14:57:37.833Z,98531.31
2022-09-21T15:00:48.927Z,98533.41
2022-09-21T15:04:36.106Z,98535.91
2022-09-21T15:08:04.859Z,98534.66
2022-09-21T15:11:31.374Z,98536.44
2022-09-21T15:14:44.321Z,98537.50
2022-09-21T15:17:59.861Z,98535.75
2022-09-21T15:21:26.556Z,98540.75
2022-09-21T15:24:36.527Z,98541.66
2022-09-21T15:27:48.690Z,98540.97
2022-09-21T15:30:54.396Z,98546.00
2022-09-21T15:34:00.748Z,98541.75
2022-09-21T15:37:19.938Z,98542.31
2022-09-21T15:40:34.435Z,98541.16
2022-09-21T15:43:48.242Z,98545.53
2022-09-21T15:47:03.342Z,98556.75
2022-09-21T15:50:23.774Z,98554.31
2022-09-21T15:53:37.262Z,98561.63
2022-09-21T15:56:48.106Z,98563.59
2022-09-21T15:59:56.882Z,98566.75
2022-09-21T16:03:10.020Z,98565.25
2022-09-21T16:06:29.440Z,98568.41
2022-09-21T16:09:45.843Z,98570.75
2022-09-21T16:12:51.500Z,98575.59
2022-09-21T16:16:07.114Z,98580.75
2022-09-21T16:19:20.002Z,98574.91
2022-09-21T16:22:32.840Z,98572.06
2022-09-21T16:25:41.066Z,98566.22
2022-09-21T16:28:46.834Z,98567.91
2022-09-21T16:32:15.766Z,98576.25
2022-09-21T16:35:31.825Z,98572.28
2022-09-21T16:38:37.388Z,98579.94
2022-09-21T16:41:51.098Z,98587.97
2022-09-21T16:44:58.429Z,98581.28
2022-09-21T16:48:08.594Z,98581.81
2022-09-21T16:51:22.548Z,98584.63
2022-09-21T16:54:32.250Z,98599.16
2022-09-21T16:57:38.263Z,98591.66
2022-09-21T17:00:47.460Z,98599.31
2022-09-21T17:03:56.984Z,98592.00
2022-09-21T17:07:11.058Z,98596.00
2022-09-21T17:10:35.162Z,98592.16
2022-09-21T17:13:40.868Z,98597.00
2022-09-21T17:16:50.504Z,98594.66
2022-09-21T17:19:58.618Z,98600.00
2022-09-21T17:23:04.931Z,98605.31
2022-09-21T17:26:21.421Z,98615.66
2022-09-21T17:29:31.060Z,98611.81
2022-09-21T17:32:38.841Z,98614.00
2022-09-21T17:35:47.304Z,98612.66
2022-09-21T17:38:52.866Z,98619.47
2022-09-21T17:42:07.778Z,98619.31
2022-09-21T17:45:32.794Z,98625.81
2022-09-21T17:48:43.337Z,98622.28
2022-09-21T17:52:06.476Z,98634.09
2022-09-21T17:55:21.532Z,98636.94
2022-09-21T17:58:50.461Z,98630.72
2022-09-21T18:01:59.777Z,98634.25
2022-09-21T18:05:23.394Z,98640.38
2022-09-21T18:08:34.268Z,98632.53
2022-09-21T18:12:05.094Z,98633.00
2022-09-21T18:15:25.327Z,98631.69
2022-09-21T18:18:49.441Z,98635.66
2022-09-21T18:22:14.296Z,98635.63
2022-09-21T18:25:34.497Z,98647.91
2022-09-21T18:28:44.269Z,98643.25
2022-09-21T18:32:10.314Z,98645.09
2022-09-21T18:36:06.193Z,98650.44
2022-09-21T18:39:37.454Z,98652.63
2022-09-21T18:43:00.028Z,98652.28
2022-09-21T18:46:15.041Z,98643.16
2022-09-21T18:49:51.228Z,98649.44
2022-09-21T18:53:09.623Z,98644.34
2022-09-21T18:56:19.187Z,98652.81
2022-09-21T18:59:31.729Z,98646.16
2022-09-21T19:02:58.989Z,98642.50
2022-09-21T19:06:48.893Z,98655.78
2022-09-21T19:10:15.327Z,98647.50
2022-09-21T19:14:02.681Z,98646.19
2022-09-21T19:17:37.894Z,98648.19
2022-09-21T19:21:27.091Z,98646.34
2022-09-21T19:25:13.730Z,98648.03
2022-09-21T19:29:08.158Z,98644.53
2022-09-21T19:32:21.308Z,98642.03
2022-09-21T19:35:39.221Z,98643.53
2022-09-21T19:38:59.178Z,98637.88
2022-09-21T19:42:30.527Z,98634.19
2022-09-21T19:45:54.775Z,98636.38
2022-09-21T19:49:18.599Z,98629.34
2022-09-21T19:52:33.218Z,98624.34
2022-09-21T19:55:55.397Z,98629.31
2022-09-21T19:59:14.843Z,98622.19
2022-09-21T20:02:32.778Z,98622.19
2022-09-21T20:05:58.335Z,98625.47
2022-09-21T20:09:18.312Z,98624.50
2022-09-21T20:12:36.807Z,98614.03
2022-09-21T20:15:52.693Z,98618.06
2022-09-21T20:19:09.569Z,98616.72
2022-09-21T20:22:21.140Z,98620.53
2022-09-21T20:25:35.182Z,98621.56
2022-09-21T20:28:41.782Z,98617.91
2022-09-21T20:31:48.857Z,98622.75
2022-09-21T20:34:54.281Z,98622.94
2022-09-21T20:38:03.322Z,98620.75
2022-09-21T20:41:15.726Z,98618.25
2022-09-21T20:44:22.175Z,98614.97
2022-09-21T20:47:29.292Z,98605.28
2022-09-21T20:50:36.667Z,98620.97
2022-09-21T20:53:45.898Z,98622.75
2022-09-21T20:56:52.301Z,98621.09
2022-09-21T20:59:57.897Z,98625.59
2022-09-21T21:03:04.637Z,98631.06
2022-09-21T21:06:13.660Z,98630.91
2022-09-21T21:09:21.915Z,98625.59
2022-09-21T21:12:27.697Z,98626.59
2022-09-21T21:15:36.615Z,98621.59
2022-09-21T21:18:43.069Z,98623.63
2022-09-21T21:21:48.737Z,98621.13
2022-09-21T21:24:56.899Z,98623.28
2022-09-21T21:28:07.022Z,98623.44
2022-09-21T21:31:12.815Z,98621.31
2022-09-21T21:34:34.109Z,98618.94
2022-09-21T21:37:47.978Z,98625.94
2022-09-21T21:41:01.037Z,98616.25
2022-09-21T21:44:06.592Z,98615.91
2022-09-21T21:50:38.317Z,98620.25
2022-09-21T21:53:43.953Z,98616.94
2022-09-21T21:56:52.447Z,98623.09
2022-09-21T21:59:57.949Z,98619.44
2022-09-21T22:03:05.143Z,98615.63
2022-09-21T22:06:12.975Z,98618.59
2022-09-21T22:09:22.357Z,98618.59
2022-09-21T22:12:30.431Z,98606.44
2022-09-21T22:15:39.105Z,98608.63
2022-09-21T22:18:49.207Z,98607.66
2022-09-21T22:21:55.165Z,98608.81
2022-09-21T22:25:00.711Z,98607.59
2022-09-21T22:28:09.229Z,98603.28
2022-09-21T22:31:19.381Z,98603.06
2022-09-21T22:34:24.920Z,98596.78
2022-09-21T22:37:30.386Z,98596.44
2022-09-21T22:40:35.992Z,98588.59
2022-09-21T22:43:44.716Z,98586.41
2022-09-21T22:46:50.248Z,98592.22
2022-09-21T22:49:56.535Z,98591.19
2022-09-21T22:53:02.288Z,98592.78
2022-09-21T22:56:11.845Z,98581.47
2022-09-21T22:59:19.975Z,98588.09
2022-09-21T23:02:25.646Z,98585.91
2022-09-21T23:05:31.534Z,98588.84
2022-09-21T23:08:39.159Z,98588.03
2022-09-21T23:11:48.209Z,98584.69
2022-09-21T23:14:57.319Z,98582.19
2022-09-21T23:18:09.149Z,98573.19
2022-09-21T23:21:23.132Z,98572.84
2022-09-21T23:24:28.683Z,98577.78
2022-09-21T23:27:34.693Z,98576.28
2022-09-21T23:30:43.132Z,98575.59
2022-09-21T23:33:52.482Z,98578.56
2022-09-21T23:36:58.098Z,98578.56
2022-09-21T23:40:04.190Z,98574.91
2022-09-21T23:43:11.978Z,98571.75
2022-09-21T23:46:29.718Z,98565.63
2022-09-21T23:49:35.223Z,98578.19
2022-09-21T23:52:42.955Z,98587.63
2022-09-21T23:55:48.509Z,98576.31
2022-09-21T23:58:55.619Z,98571.16
